Time;durP1;ratioP1;P1;durP2;ratioP2;P2;SDS_P1;SDS_P2;PMS_P1;PMS_P2;Temp;Humidity;BMP_temperature;BMP_pressure;BME280_temperature;BME280_humidity;BME280_pressure;Samples;Min_cycle;Max_cycle;Signal;HPM_P1;HPM_P2
2023/06/05 00:01:40;;;;;;;;;6.67;5.00;;;;;22.74;38.61;101395.28;4984015;28;46981;-77
2023/06/05 00:04:06;;;;;;;;;6.33;4.00;;;;;22.72;38.55;101390.94;4986220;28;45584;-76
2023/06/05 00:06:31;;;;;;;;;4.67;4.00;;;;;22.52;38.64;101367.66;4986634;28;46015;-75
2023/06/05 00:08:58;;;;;;;;;5.00;4.00;;;;;22.57;38.87;101371.91;4976757;28;45897;-75
2023/06/05 00:11:23;;;;;;;;;5.67;5.00;;;;;22.62;39.02;101380.59;4974700;28;47370;-76
2023/06/05 00:13:49;;;;;;;;;4.67;4.67;;;;;22.57;39.12;101381.72;4976078;28;46082;-72
2023/06/05 00:16:18;;;;;;;;;3.00;3.00;;;;;22.52;39.27;101378.31;4958647;28;45821;-76
2023/06/05 00:18:45;;;;;;;;;6.00;6.00;;;;;22.53;39.26;101388.09;4976043;28;45409;-74
2023/06/05 00:21:12;;;;;;;;;6.00;6.00;;;;;22.34;39.54;101358.56;4974621;28;46797;-75
2023/06/05 00:23:38;;;;;;;;;8.33;4.33;;;;;22.45;39.48;101377.72;4999754;28;45474;-74
2023/06/05 00:26:04;;;;;;;;;4.00;4.00;;;;;22.34;39.49;101367.41;5001349;28;45390;-75
2023/06/05 00:28:30;;;;;;;;;5.00;5.00;;;;;22.39;39.47;101386.78;4981662;28;45342;-76
2023/06/05 00:30:55;;;;;;;;;5.33;5.33;;;;;22.36;39.48;101376.25;4996516;28;45450;-75
2023/06/05 00:33:21;;;;;;;;;6.00;6.00;;;;;22.28;39.69;101367.66;4994469;28;45526;-71
2023/06/05 00:35:47;;;;;;;;;6.00;5.00;;;;;22.33;39.50;101384.38;4996813;28;45307;-72
2023/06/05 00:38:12;;;;;;;;;5.67;4.33;;;;;22.23;39.66;101366.94;5000726;28;45254;-75
2023/06/05 00:40:38;;;;;;;;;5.00;5.00;;;;;22.33;39.77;101391.47;4996732;28;45393;-75
2023/06/05 00:43:05;;;;;;;;;6.33;5.33;;;;;22.32;39.76;101392.44;4995753;28;45332;-74
2023/06/05 00:45:31;;;;;;;;;5.00;5.00;;;;;22.22;39.62;101379.41;4994931;28;46068;-73
2023/06/05 00:47:57;;;;;;;;;6.33;5.33;;;;;22.23;39.92;101389.19;4981912;28;45475;-78
2023/06/05 00:50:23;;;;;;;;;4.00;4.00;;;;;22.17;40.00;101375.16;4981948;28;46353;-77
2023/06/05 00:52:50;;;;;;;;;4.67;4.33;;;;;22.20;40.03;101385.69;4998693;28;45393;-76
2023/06/05 00:55:15;;;;;;;;;4.00;4.00;;;;;22.10;40.01;101370.97;4978461;28;45388;-76
2023/06/05 00:57:44;;;;;;;;;6.00;5.00;;;;;22.15;40.24;101379.66;4996026;28;45373;-75
2023/06/05 01:00:12;;;;;;;;;6.00;5.00;;;;;22.07;40.52;101376.38;4977993;28;45578;-76
2023/06/05 01:02:38;;;;;;;;;5.00;5.00;;;;;22.08;40.27;101383.47;4981180;28;45458;-71
2023/06/05 01:05:04;;;;;;;;;4.00;4.00;;;;;22.00;40.46;101370.44;4999660;28;45430;-71
2023/06/05 01:07:32;;;;;;;;;7.33;5.33;;;;;21.96;40.43;101364.31;4980562;28;45462;-75
2023/06/05 01:09:59;;;;;;;;;5.00;5.00;;;;;21.86;40.74;101359.38;4977322;28;47523;-76
2023/06/05 01:12:38;;;;;;;;;6.00;6.00;;;;;21.91;40.75;101382.28;4994928;28;45836;-69
2023/06/05 01:15:07;;;;;;;;;4.67;4.00;;;;;21.89;40.75;101383.25;4995049;28;45654;-77
2023/06/05 01:17:34;;;;;;;;;3.33;3.33;;;;;21.85;40.86;101382.47;4995785;28;45548;-74
2023/06/05 01:20:06;;;;;;;;;4.00;4.00;;;;;21.85;40.96;101381.63;4998818;28;46039;-76
2023/06/05 01:22:32;;;;;;;;;4.67;4.33;;;;;21.79;40.89;101378.25;4998775;28;45408;-76
2023/06/05 01:24:59;;;;;;;;;6.67;3.67;;;;;21.81;40.80;101376.41;4999093;28;45254;-78
2023/06/05 01:27:34;;;;;;;;;6.00;5.00;;;;;21.75;40.98;101370.41;4998848;28;45410;-77
2023/06/05 01:30:08;;;;;;;;;6.00;5.00;;;;;21.77;41.00;101387.22;4977561;28;46818;-78
2023/06/05 01:32:44;;;;;;;;;5.00;4.00;;;;;21.74;40.86;101387.34;4974579;28;45328;-75
2023/06/05 01:35:16;;;;;;;;;4.00;3.33;;;;;21.62;41.05;101369.06;4975660;28;45330;-75
2023/06/05 01:37:48;;;;;;;;;4.33;3.33;;;;;21.67;41.14;101385.81;4975661;28;45501;-77
2023/06/05 01:40:23;;;;;;;;;5.33;5.33;;;;;21.56;41.05;101384.34;4975113;28;45515;-77
2023/06/05 01:42:51;;;;;;;;;5.67;5.00;;;;;21.60;41.29;101380.66;4956431;28;45452;-70
2023/06/05 01:45:17;;;;;;;;;5.00;5.00;;;;;21.56;41.52;101384.34;4957815;28;45460;-73
2023/06/05 01:47:43;;;;;;;;;6.00;5.00;;;;;21.53;41.30;101384.47;4977648;28;45380;-77
2023/06/05 01:50:12;;;;;;;;;7.00;5.67;;;;;21.45;41.66;101374.97;4975580;28;46588;-75
2023/06/05 01:52:39;;;;;;;;;5.33;4.00;;;;;21.51;41.55;101391.63;4974384;28;45363;-76
2023/06/05 01:55:14;;;;;;;;;7.00;5.33;;;;;21.46;41.72;101380.25;4977947;28;45429;-77
2023/06/05 01:57:41;;;;;;;;;6.00;4.67;;;;;21.44;41.86;101387.41;4959724;28;45580;-75
2023/06/05 02:00:13;;;;;;;;;5.67;5.00;;;;;21.35;42.00;101372.56;4974702;28;45523;-76
2023/06/05 02:02:42;;;;;;;;;7.67;4.00;;;;;21.33;41.95;101368.22;4977583;28;45504;-75
2023/06/05 02:05:12;;;;;;;;;6.00;4.00;;;;;21.37;42.13;101369.88;4986998;28;45507;-76
2023/06/05 02:07:39;;;;;;;;;6.00;4.33;;;;;21.35;42.14;101372.56;4997222;28;45552;-77
2023/06/05 02:10:09;;;;;;;;;5.00;4.00;;;;;21.31;42.25;101362.09;4976849;28;46875;-76
2023/06/05 02:12:37;;;;;;;;;5.00;5.00;;;;;21.19;42.13;101350.03;4995482;28;45326;-78
2023/06/05 02:15:03;;;;;;;;;5.33;4.67;;;;;21.17;42.36;101354.53;4977175;28;45427;-78
2023/06/05 02:17:29;;;;;;;;;5.33;4.00;;;;;21.21;42.24;101365.94;4994246;28;45497;-75
2023/06/05 02:19:55;;;;;;;;;5.33;5.00;;;;;21.21;42.46;101381.94;4994332;28;46502;-77
2023/06/05 02:22:23;;;;;;;;;4.67;4.67;;;;;21.21;42.44;101368.63;4993607;28;45375;-75
2023/06/05 02:24:51;;;;;;;;;5.33;4.00;;;;;21.19;42.47;101368.69;4994730;28;45461;-75
2023/06/05 02:27:17;;;;;;;;;4.33;4.33;;;;;21.13;42.54;101359.06;4994538;28;45400;-74
2023/06/05 02:29:43;;;;;;;;;6.33;4.00;;;;;21.14;42.41;101368.81;4997248;28;45642;-77
2023/06/05 02:32:09;;;;;;;;;4.67;4.67;;;;;21.14;42.56;101378.59;4993674;28;45459;-75
2023/06/05 02:34:35;;;;;;;;;7.00;5.00;;;;;21.12;42.50;101365.34;4994192;28;45502;-71
2023/06/05 02:37:01;;;;;;;;;5.00;5.00;;;;;21.11;42.76;101371.56;4993796;28;45373;-70
2023/06/05 02:39:27;;;;;;;;;2.00;2.00;;;;;21.06;42.75;101369.97;4975937;28;46937;-77
2023/06/05 02:41:56;;;;;;;;;7.00;4.67;;;;;21.03;42.69;101368.28;4978620;28;45597;-75
2023/06/05 02:44:22;;;;;;;;;7.00;6.00;;;;;21.01;42.79;101367.47;4998437;28;45451;-76
2023/06/05 02:46:48;;;;;;;;;5.00;4.00;;;;;20.93;43.11;101358.84;4998499;28;45495;-71
2023/06/05 02:49:14;;;;;;;;;6.33;4.33;;;;;20.99;43.04;101369.28;4996657;28;45546;-75
2023/06/05 02:51:39;;;;;;;;;5.67;4.00;;;;;20.90;43.16;101362.47;4994053;28;45898;-77
2023/06/05 02:54:05;;;;;;;;;5.00;5.00;;;;;20.83;42.60;101338.75;4996092;28;45380;-71
2023/06/05 02:56:30;;;;;;;;;4.00;4.00;;;;;20.95;43.02;101364.97;4995401;28;45464;-74
2023/06/05 02:58:56;;;;;;;;;5.67;5.67;;;;;20.87;42.96;101348.38;4975995;28;46166;-74
2023/06/05 03:01:22;;;;;;;;;4.00;4.00;;;;;20.89;42.85;101359.88;4994742;28;45599;-73
2023/06/05 03:03:48;;;;;;;;;6.67;5.00;;;;;20.91;43.09;101360.69;4975179;28;45380;-72
2023/06/05 03:06:17;;;;;;;;;5.00;4.33;;;;;20.86;43.22;101357.31;4993443;28;45442;-74
2023/06/05 03:08:43;;;;;;;;;3.67;3.67;;;;;20.87;43.14;101365.22;4993017;28;45581;-71
2023/06/05 03:11:09;;;;;;;;;4.33;4.00;;;;;20.83;43.20;101363.56;4993736;28;45472;-76
2023/06/05 03:13:35;;;;;;;;;5.00;4.33;;;;;20.77;43.37;101345.13;4993641;28;45498;-76
2023/06/05 03:16:03;;;;;;;;;2.00;2.00;;;;;20.81;43.71;101362.78;4998510;28;45553;-76
2023/06/05 03:18:29;;;;;;;;;4.33;4.33;;;;;20.76;43.56;101364.66;4997953;28;45752;-76
2023/06/05 03:20:56;;;;;;;;;6.00;5.00;;;;;20.72;43.56;101371.03;4995904;28;45333;-75
2023/06/05 03:23:27;;;;;;;;;5.33;5.33;;;;;20.51;43.95;101336.13;4992911;28;45976;-69
2023/06/05 03:25:56;;;;;;;;;8.00;5.33;;;;;20.64;43.76;101365.03;4994906;28;45436;-70
2023/06/05 03:28:23;;;;;;;;;7.00;6.00;;;;;20.61;43.55;101358.03;4979337;28;47759;-69
2023/06/05 03:30:49;;;;;;;;;4.67;4.33;;;;;20.63;43.86;101364.19;4979735;28;45455;-70
2023/06/05 03:33:17;;;;;;;;;4.33;4.33;;;;;20.50;44.02;101346.78;4996278;28;46110;-69
2023/06/05 03:35:45;;;;;;;;;5.67;5.67;;;;;20.64;43.87;101370.38;4993791;28;45522;-75
2023/06/05 03:38:10;;;;;;;;;4.33;4.33;;;;;20.55;44.00;101366.19;4993197;28;45804;-74
2023/06/05 03:40:39;;;;;;;;;7.00;5.00;;;;;20.51;44.10;101361.84;4993173;28;45455;-77
2023/06/05 03:43:06;;;;;;;;;5.33;5.33;;;;;20.57;44.17;101377.66;4975144;28;45550;-76
2023/06/05 03:45:33;;;;;;;;;3.67;3.67;;;;;20.52;44.25;101369.81;4993938;28;45615;-76
2023/06/05 03:48:00;;;;;;;;;8.00;6.67;;;;;20.49;44.36;101366.34;4994825;28;45432;-78
2023/06/05 03:50:28;;;;;;;;;4.00;4.00;;;;;20.41;44.56;101352.41;4979409;28;45448;-77
2023/06/05 03:53:02;;;;;;;;;8.33;6.00;;;;;20.42;44.55;101364.78;4994433;28;45553;-75
2023/06/05 03:55:47;;;;;;;;;4.67;4.67;;;;;20.37;44.93;101356.94;4975931;28;45582;-76
2023/06/05 03:58:14;;;;;;;;;7.00;6.00;;;;;20.45;44.84;101372.66;4992757;28;46008;-76
2023/06/05 04:00:44;;;;;;;;;5.00;5.00;;;;;20.36;44.50;101356.97;4993262;28;45862;-75
2023/06/05 04:03:11;;;;;;;;;3.33;3.33;;;;;20.31;45.02;101360.66;4992706;28;45401;-77
2023/06/05 04:05:38;;;;;;;;;6.00;5.00;;;;;20.37;45.04;101372.03;4996073;28;45404;-77
2023/06/05 04:08:05;;;;;;;;;5.67;4.67;;;;;20.44;44.58;101381.56;4995957;28;46236;-77
2023/06/05 04:10:30;;;;;;;;;5.67;5.67;;;;;20.43;45.14;101379.81;4974627;28;45600;-75
2023/06/05 04:12:56;;;;;;;;;10.00;6.00;;;;;20.32;44.99;101361.50;4992800;28;45645;-70
2023/06/05 04:15:25;;;;;;;;;7.67;6.00;;;;;20.31;45.06;101365.06;4975993;28;45474;-75
2023/06/05 04:17:51;;;;;;;;;5.33;5.33;;;;;20.30;44.76;101366.00;4998307;28;46258;-77
2023/06/05 04:20:17;;;;;;;;;10.33;5.67;;;;;20.33;44.84;101366.81;4978664;28;45691;-69
2023/06/05 04:22:43;;;;;;;;;5.33;5.33;;;;;20.39;45.25;101378.19;4995882;28;45447;-77
2023/06/05 04:25:15;;;;;;;;;8.33;4.33;;;;;20.41;45.20;101387.00;4995654;28;45380;-75
2023/06/05 04:27:42;;;;;;;;;9.67;6.00;;;;;20.40;45.12;101383.44;4977995;28;47037;-76
2023/06/05 04:30:10;;;;;;;;;6.00;5.67;;;;;20.36;45.36;101379.16;4995384;28;45872;-75
2023/06/05 04:32:38;;;;;;;;;5.67;5.00;;;;;20.23;44.98;101352.00;4980605;28;45731;-76
2023/06/05 04:35:06;;;;;;;;;7.33;5.67;;;;;20.29;45.34;101370.47;5000000;28;45565;-75
2023/06/05 04:37:32;;;;;;;;;12.33;6.33;;;;;20.42;45.53;101389.59;4999874;28;46273;-78
2023/06/05 04:40:05;;;;;;;;;8.67;8.00;;;;;20.30;45.66;101372.19;4980778;28;45779;-75
2023/06/05 04:42:31;;;;;;;;;10.00;9.33;;;;;20.30;45.64;101371.31;4996160;28;45567;-77
2023/06/05 04:45:00;;;;;;;;;9.67;5.67;;;;;20.41;45.69;101398.50;4998722;28;45335;-76
2023/06/05 04:47:26;;;;;;;;;7.00;7.00;;;;;20.23;45.44;101365.31;4981719;28;47626;-76
2023/06/05 04:49:53;;;;;;;;;11.33;6.33;;;;;20.34;45.65;101384.50;4999656;28;45574;-75
2023/06/05 04:52:23;;;;;;;;;8.33;5.67;;;;;20.39;45.40;101399.47;4980719;28;45409;-75
2023/06/05 04:54:49;;;;;;;;;7.00;6.33;;;;;20.41;45.61;101393.19;4977649;28;45526;-74
2023/06/05 04:57:16;;;;;;;;;10.00;7.67;;;;;20.45;45.39;101391.28;4995076;28;46448;-71
2023/06/05 04:59:42;;;;;;;;;8.67;6.67;;;;;20.42;45.62;101394.91;4995236;28;45441;-76
2023/06/05 05:02:08;;;;;;;;;7.67;7.67;;;;;20.44;45.40;101395.75;4998569;28;45471;-75
2023/06/05 05:04:34;;;;;;;;;11.33;7.67;;;;;20.48;45.69;101393.88;4995106;28;45753;-75
2023/06/05 05:07:01;;;;;;;;;8.33;6.67;;;;;20.50;45.65;101397.34;4976830;28;46283;-69
2023/06/05 05:09:32;;;;;;;;;8.67;4.67;;;;;20.51;45.29;101393.78;4977839;28;45459;-77
2023/06/05 05:11:59;;;;;;;;;9.00;6.33;;;;;20.48;45.64;101388.56;4977293;28;45467;-76
2023/06/05 05:14:28;;;;;;;;;11.67;9.00;;;;;20.41;45.62;101376.34;4977382;28;45814;-77
2023/06/05 05:16:55;;;;;;;;;7.00;6.00;;;;;20.43;45.57;101380.72;4995551;28;46049;-72
2023/06/05 05:19:24;;;;;;;;;11.00;7.67;;;;;20.50;45.37;101390.25;4997064;28;45345;-76
2023/06/05 05:21:49;;;;;;;;;6.00;6.00;;;;;20.53;45.66;101398.16;4977342;28;45322;-73
2023/06/05 05:24:15;;;;;;;;;9.67;6.33;;;;;20.61;45.50;101397.94;4997768;28;45472;-77
2023/06/05 05:26:41;;;;;;;;;7.00;6.33;;;;;20.58;45.26;101390.06;4981073;28;47841;-77
2023/06/05 05:29:07;;;;;;;;;7.33;7.33;;;;;20.68;45.47;101399.50;4999301;28;45518;-74
2023/06/05 05:31:32;;;;;;;;;12.00;7.67;;;;;20.61;45.44;101373.13;4999305;28;45459;-73
2023/06/05 05:33:58;;;;;;;;;8.00;7.00;;;;;20.79;45.25;101403.66;4980147;28;45441;-76
2023/06/05 05:36:26;;;;;;;;;9.00;7.33;;;;;20.82;45.09;101398.25;4977042;28;46426;-73
2023/06/05 05:38:56;;;;;;;;;8.33;7.00;;;;;20.88;45.24;101401.59;4995120;28;45385;-75
2023/06/05 05:41:22;;;;;;;;;9.67;7.00;;;;;20.76;45.40;101370.00;4994896;28;45599;-72
2023/06/05 05:43:47;;;;;;;;;10.00;8.00;;;;;20.96;44.98;101393.38;4994747;28;45484;-73
2023/06/05 05:46:16;;;;;;;;;11.00;8.67;;;;;21.09;44.79;101405.38;4994411;28;46648;-76
2023/06/05 05:48:41;;;;;;;;;10.00;8.00;;;;;21.09;44.50;101393.84;4995386;28;45456;-73
2023/06/05 05:51:07;;;;;;;;;8.33;8.33;;;;;21.21;44.73;101406.78;4999398;28;45664;-75
2023/06/05 05:53:33;;;;;;;;;10.67;8.33;;;;;21.21;44.09;101398.78;4999534;28;45466;-75
2023/06/05 05:56:00;;;;;;;;;8.00;8.00;;;;;21.27;44.29;101405.72;4999361;28;45450;-79
2023/06/05 05:58:26;;;;;;;;;9.00;9.00;;;;;21.34;44.25;101404.59;4995869;28;45567;-69
2023/06/05 06:00:52;;;;;;;;;10.67;8.33;;;;;21.32;44.32;101391.31;4994781;28;45586;-75
2023/06/05 06:03:18;;;;;;;;;11.33;9.00;;;;;21.39;43.98;101400.91;4994870;28;45471;-74
2023/06/05 06:05:47;;;;;;;;;11.67;9.00;;;;;21.44;44.12;101408.75;4994604;28;46592;-78
2023/06/05 06:08:12;;;;;;;;;7.67;6.33;;;;;21.42;44.05;101394.59;4977378;28;45491;-79
2023/06/05 06:10:39;;;;;;;;;10.00;7.33;;;;;21.55;44.04;101417.25;5000577;28;45381;-75
2023/06/05 06:13:07;;;;;;;;;7.33;6.00;;;;;21.56;43.97;101404.81;4995517;28;45939;-75
2023/06/05 06:15:33;;;;;;;;;11.33;9.00;;;;;21.54;43.64;101390.66;4995361;28;46120;-73
2023/06/05 06:18:05;;;;;;;;;10.00;7.00;;;;;21.73;43.44;101409.56;4998678;28;45426;-77
2023/06/05 06:20:33;;;;;;;;;8.00;6.00;;;;;21.69;43.60;101397.25;4996184;28;45365;-73
2023/06/05 06:22:59;;;;;;;;;9.00;8.00;;;;;21.84;43.47;101415.41;4977050;28;45470;-76
2023/06/05 06:25:28;;;;;;;;;7.33;7.33;;;;;21.91;43.40;101414.28;4994255;28;45536;-72
2023/06/05 06:27:55;;;;;;;;;8.00;8.00;;;;;21.89;43.28;101404.59;4976136;28;45481;-79
2023/06/05 06:30:21;;;;;;;;;7.00;6.67;;;;;22.01;43.01;101415.69;4993075;28;45482;-76
2023/06/05 06:32:47;;;;;;;;;11.00;8.67;;;;;22.08;43.17;101423.50;4994385;28;45445;-75
2023/06/05 06:35:13;;;;;;;;;7.00;7.00;;;;;22.03;42.90;101408.50;4993850;28;46048;-78
2023/06/05 06:37:42;;;;;;;;;7.00;7.00;;;;;22.11;42.78;101410.03;4979354;28;45415;-77
2023/06/05 06:40:09;;;;;;;;;10.00;8.00;;;;;22.18;42.88;101415.09;4997139;28;45761;-78
2023/06/05 06:42:35;;;;;;;;;12.33;8.33;;;;;22.21;42.37;101416.84;4998530;28;45539;-73
2023/06/05 06:45:01;;;;;;;;;9.00;8.00;;;;;22.26;42.44;101414.88;4979288;28;47762;-76
2023/06/05 06:47:27;;;;;;;;;11.00;8.33;;;;;22.25;42.47;101407.78;4978257;28;45522;-78
2023/06/05 06:49:53;;;;;;;;;6.33;6.33;;;;;22.22;42.56;101395.41;4994182;28;45577;-74
2023/06/05 06:52:20;;;;;;;;;12.67;10.33;;;;;22.36;42.08;101418.94;4979386;28;45420;-73
2023/06/05 06:54:46;;;;;;;;;8.67;8.67;;;;;22.37;42.34;101411.81;4980162;28;47728;-72
2023/06/05 06:57:11;;;;;;;;;11.33;7.67;;;;;22.39;42.19;101421.50;4976224;28;45374;-74
2023/06/05 06:59:40;;;;;;;;;10.00;10.00;;;;;22.37;42.23;101402.00;4994457;28;45715;-78
2023/06/05 07:02:13;;;;;;;;;13.67;11.33;;;;;22.56;42.40;101420.00;4978296;28;45556;-73
2023/06/05 07:04:41;;;;;;;;;10.67;10.00;;;;;22.49;42.72;101416.69;4981549;28;46954;-78
2023/06/05 07:07:08;;;;;;;;;14.33;10.00;;;;;22.55;42.84;101416.47;4998895;28;45480;-73
2023/06/05 07:09:34;;;;;;;;;10.00;10.00;;;;;22.57;43.10;101409.28;4994996;28;45511;-68
2023/06/05 07:12:04;;;;;;;;;12.67;9.33;;;;;22.74;42.58;101413.97;4978560;28;45936;-73
2023/06/05 07:14:34;;;;;;;;;14.00;12.00;;;;;22.77;42.54;101411.19;4980565;28;45816;-71
2023/06/05 07:17:00;;;;;;;;;10.00;9.00;;;;;22.87;42.27;101417.03;4994139;28;46089;-74
2023/06/05 07:19:31;;;;;;;;;12.00;9.00;;;;;23.00;42.14;101430.84;4977767;28;45566;-74
2023/06/05 07:21:58;;;;;;;;;12.00;12.00;;;;;23.05;41.86;101434.19;4975536;28;45592;-72
2023/06/05 07:24:25;;;;;;;;;10.33;8.00;;;;;23.00;41.27;101415.69;4977236;28;46934;-76
2023/06/05 07:26:55;;;;;;;;;13.00;13.00;;;;;23.14;41.20;101431.16;4990786;28;45486;-74
2023/06/05 07:29:23;;;;;;;;;9.00;9.00;;;;;23.09;41.51;101430.50;4991351;28;45454;-78
2023/06/05 07:31:55;;;;;;;;;12.00;10.00;;;;;23.08;41.16;101439.41;4992032;28;45418;-71
2023/06/05 07:34:26;;;;;;;;;11.00;11.00;;;;;23.11;40.80;101431.28;4993089;28;46861;-76
2023/06/05 07:36:52;;;;;;;;;14.00;11.00;;;;;22.95;41.04;101419.44;4973173;28;46083;-78
2023/06/05 07:39:22;;;;;;;;;17.33;13.00;;;;;22.73;41.17;101424.72;4972696;28;45668;-75
2023/06/05 07:41:48;;;;;;;;;10.33;10.33;;;;;22.79;41.35;101430.69;4988936;28;45477;-75
2023/06/05 07:44:19;;;;;;;;;10.67;9.33;;;;;22.82;41.31;101425.22;4972150;28;47304;-77
2023/06/05 07:46:48;;;;;;;;;12.67;9.00;;;;;22.95;40.86;101422.09;4976243;28;45531;-77
2023/06/05 07:49:17;;;;;;;;;8.33;8.33;;;;;23.04;40.39;101428.00;4994746;28;45381;-73
2023/06/05 07:51:44;;;;;;;;;13.00;9.33;;;;;23.04;40.87;101424.44;4979993;28;45691;-72
2023/06/05 07:54:11;;;;;;;;;12.00;12.00;;;;;22.93;41.50;101421.28;4980083;28;47294;-71
2023/06/05 07:56:38;;;;;;;;;9.33;9.33;;;;;22.81;41.26;101422.63;4980336;28;45590;-71
2023/06/05 07:59:05;;;;;;;;;13.00;10.00;;;;;22.88;41.25;101426.81;4995495;28;45515;-77
2023/06/05 08:01:36;;;;;;;;;8.67;8.33;;;;;22.88;41.47;101410.78;4980041;28;45558;-68
2023/06/05 08:04:06;;;;;;;;;11.33;9.00;;;;;23.06;41.14;101417.22;4993457;28;46142;-71
2023/06/05 08:06:32;;;;;;;;;9.00;9.00;;;;;23.16;40.72;101413.28;4986737;28;45878;-70
2023/06/05 08:09:01;;;;;;;;;10.00;9.67;;;;;23.16;40.61;101397.25;4996571;28;45532;-71
2023/06/05 08:11:28;;;;;;;;;12.33;9.33;;;;;23.31;40.70;101416.28;4997748;28;45650;-77
2023/06/05 08:13:57;;;;;;;;;9.00;8.00;;;;;23.36;40.23;101414.28;4997687;28;45702;-80
2023/06/05 08:16:22;;;;;;;;;11.67;11.67;;;;;23.27;40.61;101404.81;4996522;28;45353;-76
2023/06/05 08:18:48;;;;;;;;;9.33;9.33;;;;;23.31;40.54;101401.09;4993968;28;45639;-70
2023/06/05 08:21:14;;;;;;;;;11.00;10.00;;;;;23.40;40.42;101395.38;4993474;28;45445;-77
2023/06/05 08:23:39;;;;;;;;;12.33;9.67;;;;;23.49;40.79;101404.81;4996630;28;45920;-77
2023/06/05 08:26:10;;;;;;;;;11.33;9.67;;;;;23.57;40.13;101400.03;4976576;28;45795;-74
2023/06/05 08:28:39;;;;;;;;;9.33;8.67;;;;;23.63;41.28;101407.81;4994210;28;45343;-75
2023/06/05 08:31:05;;;;;;;;;11.00;10.00;;;;;23.74;40.69;101407.38;4978258;28;45851;-68
2023/06/05 08:33:33;;;;;;;;;12.33;9.67;;;;;23.80;40.39;101401.78;4976119;28;48137;-68
2023/06/05 08:35:58;;;;;;;;;13.67;11.33;;;;;23.83;39.65;101387.38;4976088;28;45911;-69
2023/06/05 08:38:24;;;;;;;;;11.33;8.33;;;;;23.96;39.71;101401.97;4994029;28;45526;-72
2023/06/05 08:40:58;;;;;;;;;7.67;7.33;;;;;24.10;39.38;101409.38;4998367;28;45482;-72
2023/06/05 08:43:24;;;;;;;;;14.67;12.00;;;;;24.14;39.29;101408.31;4980798;28;46053;-73
2023/06/05 08:45:52;;;;;;;;;11.00;10.33;;;;;24.17;39.64;101401.97;4977922;28;45447;-69
2023/06/05 08:48:20;;;;;;;;;12.33;10.33;;;;;24.22;39.07;101398.13;4995551;28;45427;-71
2023/06/05 08:50:48;;;;;;;;;11.00;9.00;;;;;24.27;39.07;101389.91;4994503;28;45336;-74
2023/06/05 08:53:16;;;;;;;;;9.67;8.00;;;;;24.40;39.38;101403.63;4995500;28;46285;-72
2023/06/05 08:55:45;;;;;;;;;11.33;10.00;;;;;24.49;39.19;101403.25;4994770;28;45403;-76
2023/06/05 08:58:13;;;;;;;;;12.33;9.33;;;;;24.56;39.23;101410.06;4996050;28;45515;-79
2023/06/05 09:00:40;;;;;;;;;11.00;10.33;;;;;24.51;38.34;101391.50;4999833;28;45531;-74
2023/06/05 09:03:05;;;;;;;;;9.67;9.67;;;;;24.49;38.70;101398.75;4998706;28;45416;-73
2023/06/05 09:05:32;;;;;;;;;11.00;8.67;;;;;24.54;39.01;101401.22;4996195;28;45472;-77
2023/06/05 09:07:59;;;;;;;;;12.00;9.00;;;;;24.53;38.65;101392.28;4995412;28;45306;-79
2023/06/05 09:10:28;;;;;;;;;11.00;8.67;;;;;24.54;38.60;101382.47;5000299;28;45424;-76
2023/06/05 09:13:02;;;;;;;;;12.33;9.33;;;;;24.59;38.29;101391.16;4999310;28;45554;-74
2023/06/05 09:15:29;;;;;;;;;11.33;10.00;;;;;24.67;38.60;101401.50;4998302;28;45510;-73
2023/06/05 09:18:10;;;;;;;;;13.00;10.33;;;;;24.70;38.44;101396.00;4996672;28;45480;-74
2023/06/05 09:20:41;;;;;;;;;11.33;8.00;;;;;24.74;38.34;101389.56;4996108;28;45489;-70
2023/06/05 09:23:24;;;;;;;;;13.00;11.00;;;;;24.77;37.53;101400.13;4998920;28;45583;-71
2023/06/05 09:25:50;;;;;;;;;9.33;9.33;;;;;24.73;37.94;101382.47;4981447;28;45590;-71
2023/06/05 09:28:19;;;;;;;;;14.00;10.33;;;;;24.78;37.75;101391.16;4999159;28;45380;-73
2023/06/05 09:30:59;;;;;;;;;10.00;8.67;;;;;24.78;37.52;101388.50;4995792;28;45332;-72
2023/06/05 09:33:27;;;;;;;;;12.00;9.67;;;;;24.73;38.04;101386.03;4994761;28;46144;-72
2023/06/05 09:36:11;;;;;;;;;7.67;7.67;;;;;24.74;38.45;101398.47;4978616;28;45351;-73
2023/06/05 09:38:39;;;;;;;;;9.67;9.00;;;;;24.75;38.76;101372.56;4977161;28;45569;-72
2023/06/05 09:41:10;;;;;;;;;10.00;9.00;;;;;24.83;38.27;101381.09;4999832;28;45434;-73
2023/06/05 09:43:36;;;;;;;;;11.33;9.33;;;;;24.85;38.53;101381.91;4993873;28;46237;-70
2023/06/05 09:46:13;;;;;;;;;12.67;12.33;;;;;24.89;37.14;101380.81;4994306;28;45387;-71
2023/06/05 09:48:40;;;;;;;;;10.00;10.00;;;;;24.88;37.58;101379.06;4997713;28;45472;-70
2023/06/05 09:51:19;;;;;;;;;10.00;10.00;;;;;24.86;37.35;101374.72;4996142;28;45551;-70
2023/06/05 09:53:49;;;;;;;;;14.00;11.00;;;;;24.34;37.53;101290.53;4994562;28;46233;-73
2023/06/05 09:56:17;;;;;;;;;10.00;10.00;;;;;24.88;38.06;101370.16;4981431;28;45432;-75
2023/06/05 09:58:48;;;;;;;;;10.67;10.00;;;;;24.86;37.68;101361.31;4998557;28;46213;-72
2023/06/05 10:01:22;;;;;;;;;11.00;10.00;;;;;24.96;38.26;101376.91;4997633;28;45440;-73
2023/06/05 10:04:00;;;;;;;;;10.00;10.00;;;;;25.08;37.32;101382.59;4981244;28;45541;-75
2023/06/05 10:06:33;;;;;;;;;13.67;10.33;;;;;25.06;37.39;101357.69;4974490;28;45509;-75
2023/06/05 10:09:00;;;;;;;;;11.00;11.00;;;;;25.18;37.59;101370.53;4990071;28;45491;-70
2023/06/05 10:11:26;;;;;;;;;9.33;9.33;;;;;25.08;37.74;101353.09;4974397;28;45345;-70
2023/06/05 10:13:53;;;;;;;;;11.67;9.00;;;;;25.21;38.03;101375.72;4991316;28;45508;-68
2023/06/05 10:16:19;;;;;;;;;12.67;11.00;;;;;25.23;37.04;101364.94;4994468;28;45609;-70
2023/06/05 10:18:49;;;;;;;;;10.67;10.67;;;;;25.20;36.91;101347.19;4992738;28;45682;-69
2023/06/05 10:21:16;;;;;;;;;10.33;10.00;;;;;25.37;36.47;101363.31;4975136;28;45520;-68
2023/06/05 10:23:50;;;;;;;;;12.00;10.33;;;;;25.40;36.56;101356.91;4996198;28;47586;-72
2023/06/05 10:26:27;;;;;;;;;14.33;10.67;;;;;25.48;36.24;101364.56;4975569;28;45382;-71
2023/06/05 10:29:02;;;;;;;;;14.33;11.00;;;;;25.45;35.47;101349.50;4974238;28;45570;-76
2023/06/05 10:31:45;;;;;;;;;14.33;12.00;;;;;25.63;34.92;101368.28;4995007;28;45568;-77
2023/06/05 10:34:51;;;;;;;;;14.33;10.00;;;;;25.68;34.27;101351.03;4973737;28;45550;-74
2023/06/05 10:37:25;;;;;;;;;13.00;11.67;;;;;25.77;33.54;101355.91;4988491;28;45295;-75
2023/06/05 10:39:54;;;;;;;;;13.67;12.00;;;;;25.72;32.34;101338.28;4978441;28;45470;-74
2023/06/05 10:42:24;;;;;;;;;9.75;7.50;;;;;25.90;32.19;101355.28;4992065;28;45751;-68
2023/06/05 10:44:50;;;;;;;;;32.67;23.00;;;;;25.86;31.99;101333.09;4992196;28;46005;-74
2023/06/05 10:47:33;;;;;;;;;20.67;17.67;;;;;26.05;31.11;101354.47;4991559;28;45496;-76
2023/06/05 10:50:27;;;;;;;;;31.33;27.33;;;;;26.10;31.62;101344.38;4993020;28;45479;-78
2023/06/05 10:52:54;;;;;;;;;71.50;56.00;;;;;26.16;31.95;101344.03;4989390;28;45290;-75
2023/06/05 10:55:22;;;;;;;;;71.50;54.50;;;;;26.22;31.60;101342.84;4991515;28;45869;-73
2023/06/05 10:58:04;;;;;;;;;195.75;169.75;;;;;26.30;31.78;101340.63;4977429;28;45539;-77
2023/06/05 11:00:34;;;;;;;;;48.00;35.33;;;;;26.31;31.50;101326.22;4991768;28;45241;-72
2023/06/05 11:03:01;;;;;;;;;17.33;16.67;;;;;26.38;31.52;101319.56;4992130;28;45649;-71
2023/06/05 11:05:27;;;;;;;;;25.67;18.67;;;;;26.51;31.04;101322.44;4974487;28;45403;-73
2023/06/05 11:08:13;;;;;;;;;19.67;19.00;;;;;26.63;31.11;101315.56;4995612;28;45496;-78
2023/06/05 11:11:05;;;;;;;;;45.00;35.67;;;;;26.71;31.12;101320.50;4977894;28;45382;-74
2023/06/05 11:13:56;;;;;;;;;79.00;70.25;;;;;26.78;30.46;101308.44;4995576;28;45340;-77
2023/06/05 11:16:32;;;;;;;;;53.00;42.00;;;;;26.81;30.20;101310.94;4970078;28;47991;-73
2023/06/05 11:19:22;;;;;;;;;71.25;60.25;;;;;26.92;30.45;101308.53;4974092;28;45366;-71
2023/06/05 11:22:11;;;;;;;;;61.25;47.25;;;;;27.01;29.91;101299.94;4964940;28;45369;-72
2023/06/05 11:24:38;;;;;;;;;18.67;16.33;;;;;27.06;29.09;101295.16;4976689;28;45357;-79
2023/06/05 11:27:05;;;;;;;;;28.67;23.67;;;;;27.03;29.30;101281.91;4991179;28;46872;-75